Time;durP1;ratioP1;P1;durP2;ratioP2;P2;SDS_P1;SDS_P2;PMS_P1;PMS_P2;Temp;Humidity;BMP_temperature;BMP_pressure;BME280_temperature;BME280_humidity;BME280_pressure;Samples;Min_cycle;Max_cycle;Signal;HPM_P1;HPM_P2
2022/03/11 00:02:18;;;;;;;13.77;6.68;;;;;;;;;;5068733;28;20036;-77
2022/03/11 00:04:45;;;;;;;14.70;6.82;;;;;;;;;;5068809;28;20064;-77
2022/03/11 00:07:11;;;;;;;13.07;6.40;;;;;;;;;;5052040;28;20036;-77
2022/03/11 00:09:38;;;;;;;11.80;6.82;;;;;;;;;;5052612;28;20492;-77
2022/03/11 00:12:04;;;;;;;12.00;6.32;;;;;;;;;;5068990;28;20568;-77
2022/03/11 00:14:30;;;;;;;14.45;7.57;;;;;;;;;;5061782;28;20435;-77
2022/03/11 00:16:56;;;;;;;11.98;6.30;;;;;;;;;;5045498;28;20098;-77
2022/03/11 00:19:22;;;;;;;14.80;6.18;;;;;;;;;;5063265;28;20132;-77
2022/03/11 00:21:48;;;;;;;10.88;6.60;;;;;;;;;;5044760;28;20124;-77
2022/03/11 00:24:14;;;;;;;15.85;6.70;;;;;;;;;;5046528;28;20036;-77
2022/03/11 00:26:40;;;;;;;14.88;7.13;;;;;;;;;;5062761;28;20037;-77
2022/03/11 00:29:06;;;;;;;13.30;6.82;;;;;;;;;;5061515;28;20119;-78
2022/03/11 00:31:32;;;;;;;13.57;6.28;;;;;;;;;;5063365;28;20052;-77
2022/03/11 00:33:59;;;;;;;14.40;6.97;;;;;;;;;;5070557;28;20606;-77
2022/03/11 00:36:25;;;;;;;12.52;6.32;;;;;;;;;;5055606;28;20052;-77
2022/03/11 00:38:51;;;;;;;13.23;6.90;;;;;;;;;;5055917;28;20538;-77
2022/03/11 00:41:17;;;;;;;11.60;6.20;;;;;;;;;;5055360;28;20041;-77
2022/03/11 00:43:43;;;;;;;14.50;6.93;;;;;;;;;;5071995;28;20568;-77
2022/03/11 00:46:09;;;;;;;14.90;6.57;;;;;;;;;;5071902;28;20135;-77
2022/03/11 00:48:35;;;;;;;11.55;5.75;;;;;;;;;;5072045;28;20434;-77
2022/03/11 00:51:01;;;;;;;10.32;5.68;;;;;;;;;;5055632;28;20104;-77
2022/03/11 00:53:30;;;;;;;11.55;5.90;;;;;;;;;;5055557;28;20075;-77
2022/03/11 00:55:56;;;;;;;14.43;6.15;;;;;;;;;;5055176;28;20400;-77
2022/03/11 00:58:22;;;;;;;14.80;6.47;;;;;;;;;;5071662;28;20508;-78
2022/03/11 01:00:48;;;;;;;13.52;6.90;;;;;;;;;;5071675;28;20076;-77
2022/03/11 01:03:14;;;;;;;13.85;6.13;;;;;;;;;;5055105;28;20400;-77
2022/03/11 01:05:40;;;;;;;13.85;6.45;;;;;;;;;;5071562;28;20032;-77
2022/03/11 01:08:06;;;;;;;12.55;6.90;;;;;;;;;;5071620;28;20047;-77
2022/03/11 01:10:32;;;;;;;12.38;6.15;;;;;;;;;;5054980;28;20111;-78
2022/03/11 01:12:58;;;;;;;10.93;6.47;;;;;;;;;;5072109;28;20362;-77
2022/03/11 01:15:24;;;;;;;13.05;6.43;;;;;;;;;;5053745;28;20052;-77
2022/03/11 01:17:50;;;;;;;14.13;6.82;;;;;;;;;;5068219;28;20498;-77
2022/03/11 01:20:16;;;;;;;17.95;7.43;;;;;;;;;;5051555;28;20047;-77
2022/03/11 01:22:42;;;;;;;14.20;7.20;;;;;;;;;;5067275;28;20033;-77
2022/03/11 01:25:08;;;;;;;15.98;7.28;;;;;;;;;;5051355;28;20416;-77
2022/03/11 01:27:36;;;;;;;15.90;7.97;;;;;;;;;;5051312;28;20036;-77
2022/03/11 01:30:03;;;;;;;11.48;6.88;;;;;;;;;;5051575;28;20048;-77
2022/03/11 01:32:29;;;;;;;19.25;8.27;;;;;;;;;;5067459;28;20079;-77
2022/03/11 01:34:55;;;;;;;12.80;7.65;;;;;;;;;;5067934;28;20449;-77
2022/03/11 01:37:21;;;;;;;15.68;7.68;;;;;;;;;;5051059;28;20048;-77
2022/03/11 01:39:47;;;;;;;18.80;7.32;;;;;;;;;;5067814;28;20045;-77
2022/03/11 01:42:13;;;;;;;15.27;9.05;;;;;;;;;;5051091;28;20040;-77
2022/03/11 01:44:39;;;;;;;15.18;7.45;;;;;;;;;;5067054;28;20047;-77
2022/03/11 01:47:06;;;;;;;17.25;8.13;;;;;;;;;;5067707;28;20090;-77
2022/03/11 01:49:32;;;;;;;16.70;7.60;;;;;;;;;;5065221;28;20032;-77
2022/03/11 01:51:58;;;;;;;23.13;9.30;;;;;;;;;;5053651;28;20085;-77
2022/03/11 01:54:24;;;;;;;16.15;8.93;;;;;;;;;;5054090;28;20051;-77
2022/03/11 01:56:51;;;;;;;20.27;8.98;;;;;;;;;;5071014;28;20071;-77
2022/03/11 01:59:17;;;;;;;21.85;9.48;;;;;;;;;;5071008;28;20039;-77
2022/03/11 02:01:43;;;;;;;16.38;8.75;;;;;;;;;;5053858;28;20052;-77
2022/03/11 02:04:09;;;;;;;23.27;9.57;;;;;;;;;;5054295;28;20048;-77
2022/03/11 02:06:36;;;;;;;24.92;10.15;;;;;;;;;;5070603;28;20029;-77
2022/03/11 02:09:02;;;;;;;21.35;9.73;;;;;;;;;;5054007;28;20036;-77
2022/03/11 02:11:28;;;;;;;20.85;9.88;;;;;;;;;;5053897;28;20089;-77
2022/03/11 02:13:56;;;;;;;17.13;9.18;;;;;;;;;;5070144;28;20519;-77
2022/03/11 02:16:21;;;;;;;22.27;10.98;;;;;;;;;;5053646;28;20044;-77
2022/03/11 02:18:48;;;;;;;24.45;9.82;;;;;;;;;;5053708;28;20040;-77
2022/03/11 02:21:15;;;;;;;27.83;10.10;;;;;;;;;;5070127;28;20076;-77
2022/03/11 02:23:45;;;;;;;24.95;11.80;;;;;;;;;;5053983;28;20488;-77
2022/03/11 02:26:11;;;;;;;25.70;11.00;;;;;;;;;;5070140;28;20032;-77
2022/03/11 02:28:37;;;;;;;26.00;10.45;;;;;;;;;;5070309;28;20036;-77
2022/03/11 02:31:03;;;;;;;18.27;10.25;;;;;;;;;;5070087;28;20055;-77
2022/03/11 02:33:29;;;;;;;25.67;12.05;;;;;;;;;;5069211;28;20040;-77
2022/03/11 02:35:55;;;;;;;26.30;11.93;;;;;;;;;;5070045;28;20032;-77
2022/03/11 02:38:21;;;;;;;27.50;12.73;;;;;;;;;;5070141;28;20036;-77
2022/03/11 02:40:47;;;;;;;31.85;12.68;;;;;;;;;;5069577;28;20488;-77
2022/03/11 02:43:13;;;;;;;23.98;12.00;;;;;;;;;;5053600;28;20040;-77
2022/03/11 02:45:39;;;;;;;25.52;12.00;;;;;;;;;;5071121;28;20131;-77
2022/03/11 02:48:05;;;;;;;27.73;11.80;;;;;;;;;;5054398;28;20127;-77
2022/03/11 02:50:32;;;;;;;27.70;11.93;;;;;;;;;;5054789;28;20519;-77
2022/03/11 02:52:58;;;;;;;27.15;12.02;;;;;;;;;;5054378;28;20040;-77
2022/03/11 02:55:24;;;;;;;25.25;12.40;;;;;;;;;;5054505;28;20147;-77
2022/03/11 02:57:49;;;;;;;26.85;11.57;;;;;;;;;;5071034;28;20044;-77
2022/03/11 03:00:16;;;;;;;25.90;11.75;;;;;;;;;;5071404;28;20036;-77
2022/03/11 03:02:42;;;;;;;27.00;12.30;;;;;;;;;;5070779;28;20037;-77
2022/03/11 03:05:08;;;;;;;26.73;11.43;;;;;;;;;;5070783;28;20500;-77
2022/03/11 03:07:34;;;;;;;26.92;11.80;;;;;;;;;;5071010;28;20036;-77
2022/03/11 03:10:00;;;;;;;30.25;12.90;;;;;;;;;;5070663;28;20075;-77
2022/03/11 03:12:26;;;;;;;31.17;12.43;;;;;;;;;;5054017;28;20051;-77
2022/03/11 03:14:53;;;;;;;31.25;14.05;;;;;;;;;;5053806;28;20061;-77
2022/03/11 03:17:19;;;;;;;34.88;14.70;;;;;;;;;;5054090;28;20640;-77
2022/03/11 03:19:46;;;;;;;28.25;13.52;;;;;;;;;;5054077;28;20131;-77
2022/03/11 03:22:12;;;;;;;29.30;13.52;;;;;;;;;;5054087;28;20039;-77
2022/03/11 03:24:38;;;;;;;27.60;14.07;;;;;;;;;;5070613;28;20032;-77
2022/03/11 03:27:04;;;;;;;29.25;13.07;;;;;;;;;;5070343;28;20063;-77
2022/03/11 03:29:30;;;;;;;31.25;13.35;;;;;;;;;;5053870;28;20041;-77
2022/03/11 03:31:58;;;;;;;33.05;14.23;;;;;;;;;;5070363;28;20044;-77
2022/03/11 03:34:31;;;;;;;31.40;14.30;;;;;;;;;;5053878;28;20040;-77
2022/03/11 03:36:57;;;;;;;33.90;14.32;;;;;;;;;;5053656;28;20044;-76
2022/03/11 03:39:24;;;;;;;32.35;13.85;;;;;;;;;;5070249;28;20138;-77
2022/03/11 03:41:50;;;;;;;30.15;12.73;;;;;;;;;;5053480;28;20421;-77
2022/03/11 03:44:16;;;;;;;29.63;13.15;;;;;;;;;;5070138;28;20123;-77
2022/03/11 03:46:42;;;;;;;32.72;13.77;;;;;;;;;;5070364;28;20040;-77
2022/03/11 03:49:08;;;;;;;29.17;13.52;;;;;;;;;;5053812;28;20044;-77
2022/03/11 03:51:34;;;;;;;32.65;13.32;;;;;;;;;;5070181;28;20080;-77
2022/03/11 03:54:00;;;;;;;33.70;13.80;;;;;;;;;;5070093;28;20408;-77
2022/03/11 03:56:26;;;;;;;31.70;15.10;;;;;;;;;;5053737;28;20046;-77
2022/03/11 03:58:52;;;;;;;34.08;14.77;;;;;;;;;;5070124;28;20082;-77
2022/03/11 04:01:18;;;;;;;31.02;13.88;;;;;;;;;;5053571;28;20044;-76
2022/03/11 04:03:44;;;;;;;31.48;14.07;;;;;;;;;;5053735;28;20105;-77
2022/03/11 04:06:10;;;;;;;30.17;13.30;;;;;;;;;;5070341;28;20074;-76
2022/03/11 04:08:36;;;;;;;34.13;14.75;;;;;;;;;;5053605;28;20040;-76
2022/03/11 04:11:02;;;;;;;30.42;13.98;;;;;;;;;;5053697;28;20040;-77
2022/03/11 04:13:28;;;;;;;33.75;14.32;;;;;;;;;;5069885;28;20052;-77
2022/03/11 04:15:54;;;;;;;28.83;12.65;;;;;;;;;;5053372;28;20489;-77
2022/03/11 04:18:21;;;;;;;35.35;14.00;;;;;;;;;;5069935;28;20040;-77
2022/03/11 04:20:47;;;;;;;27.48;13.05;;;;;;;;;;5053176;28;20503;-76
2022/03/11 04:23:13;;;;;;;33.65;14.40;;;;;;;;;;5070029;28;20079;-77
2022/03/11 04:25:39;;;;;;;29.55;13.70;;;;;;;;;;5069984;28;20484;-77
2022/03/11 04:28:06;;;;;;;31.73;12.88;;;;;;;;;;5053016;28;20044;-76
2022/03/11 04:30:32;;;;;;;31.40;14.05;;;;;;;;;;5070051;28;20081;-77
2022/03/11 04:32:58;;;;;;;34.78;14.07;;;;;;;;;;5053093;28;20044;-77
2022/03/11 04:35:23;;;;;;;32.53;13.52;;;;;;;;;;5053355;28;20040;-76
2022/03/11 04:37:49;;;;;;;36.67;13.85;;;;;;;;;;5052962;28;20039;-77
2022/03/11 04:40:15;;;;;;;30.08;15.05;;;;;;;;;;5052806;28;20041;-76
2022/03/11 04:42:41;;;;;;;32.13;14.32;;;;;;;;;;5070097;28;20560;-76
2022/03/11 04:45:07;;;;;;;29.95;14.05;;;;;;;;;;5053127;28;20405;-77
2022/03/11 04:47:34;;;;;;;31.80;13.32;;;;;;;;;;5053221;28;20101;-77
2022/03/11 04:49:59;;;;;;;33.88;14.05;;;;;;;;;;5069609;28;20059;-77
2022/03/11 04:52:25;;;;;;;37.90;14.50;;;;;;;;;;5052868;28;20032;-77
2022/03/11 04:54:51;;;;;;;33.15;14.35;;;;;;;;;;5053122;28;20467;-76
2022/03/11 04:57:17;;;;;;;31.45;13.45;;;;;;;;;;5071676;28;20040;-77
2022/03/11 04:59:44;;;;;;;32.40;14.40;;;;;;;;;;5073066;28;20555;-76
2022/03/11 05:02:10;;;;;;;33.40;13.65;;;;;;;;;;5073523;28;20039;-76
2022/03/11 05:04:36;;;;;;;35.72;14.10;;;;;;;;;;5073188;28;20048;-76
2022/03/11 05:07:02;;;;;;;33.35;14.50;;;;;;;;;;5056621;28;20032;-76
2022/03/11 05:09:28;;;;;;;31.35;14.32;;;;;;;;;;5056315;28;20072;-76
2022/03/11 05:11:54;;;;;;;33.90;14.35;;;;;;;;;;5056510;28;20084;-76
2022/03/11 05:14:20;;;;;;;28.38;13.65;;;;;;;;;;5072878;28;20143;-76
2022/03/11 05:16:46;;;;;;;35.95;14.68;;;;;;;;;;5056184;28;20140;-76
2022/03/11 05:19:12;;;;;;;37.28;15.23;;;;;;;;;;5073106;28;20477;-76
2022/03/11 05:21:38;;;;;;;31.77;14.85;;;;;;;;;;5072630;28;20036;-77
2022/03/11 05:24:04;;;;;;;36.97;14.73;;;;;;;;;;5073063;28;20469;-76
2022/03/11 05:26:30;;;;;;;34.63;13.75;;;;;;;;;;5072701;28;20041;-77
2022/03/11 05:28:58;;;;;;;31.58;15.15;;;;;;;;;;5072802;28;20117;-77
2022/03/11 05:31:24;;;;;;;38.97;14.45;;;;;;;;;;5055866;28;20048;-76
2022/03/11 05:33:50;;;;;;;35.00;13.95;;;;;;;;;;5072681;28;20094;-77
2022/03/11 05:36:17;;;;;;;28.65;13.30;;;;;;;;;;5072659;28;20036;-77
2022/03/11 05:38:44;;;;;;;29.35;14.32;;;;;;;;;;5055741;28;20044;-77
2022/03/11 05:41:10;;;;;;;35.10;14.15;;;;;;;;;;5055571;28;20040;-77
2022/03/11 05:43:36;;;;;;;31.77;12.95;;;;;;;;;;5072315;28;20124;-77
2022/03/11 05:46:02;;;;;;;29.55;13.95;;;;;;;;;;5072332;28;20032;-76
2022/03/11 05:48:28;;;;;;;30.63;13.98;;;;;;;;;;5055705;28;20123;-76
2022/03/11 05:50:54;;;;;;;34.78;14.50;;;;;;;;;;5072376;28;20090;-76
2022/03/11 05:53:20;;;;;;;28.58;14.18;;;;;;;;;;5055624;28;20093;-77
2022/03/11 05:55:46;;;;;;;31.50;13.75;;;;;;;;;;5072131;28;20044;-76
2022/03/11 05:58:12;;;;;;;31.98;14.35;;;;;;;;;;5055306;28;20057;-77
2022/03/11 06:00:38;;;;;;;34.47;14.35;;;;;;;;;;5055170;28;20074;-76
2022/03/11 06:03:04;;;;;;;28.90;13.00;;;;;;;;;;5055520;28;20039;-77
2022/03/11 06:05:30;;;;;;;34.33;13.80;;;;;;;;;;5071975;28;20036;-77
2022/03/11 06:07:56;;;;;;;32.15;13.82;;;;;;;;;;5070846;28;20037;-77
2022/03/11 06:10:22;;;;;;;31.67;14.48;;;;;;;;;;5072018;28;20090;-76
2022/03/11 06:12:48;;;;;;;33.17;14.05;;;;;;;;;;5072090;28;20086;-77
2022/03/11 06:15:15;;;;;;;28.92;13.15;;;;;;;;;;5071606;28;20056;-75
2022/03/11 06:17:41;;;;;;;28.17;12.70;;;;;;;;;;5055362;28;20040;-76
2022/03/11 06:20:08;;;;;;;32.95;13.93;;;;;;;;;;5071531;28;20098;-77
2022/03/11 06:22:36;;;;;;;26.33;12.98;;;;;;;;;;5054983;28;20041;-77
2022/03/11 06:25:02;;;;;;;31.10;13.70;;;;;;;;;;5054840;28;20036;-76
2022/03/11 06:27:28;;;;;;;31.60;13.73;;;;;;;;;;5054766;28;20041;-77
2022/03/11 06:29:54;;;;;;;33.97;13.20;;;;;;;;;;5055129;28;20044;-76
2022/03/11 06:32:20;;;;;;;28.85;13.02;;;;;;;;;;5071342;28;20060;-77
2022/03/11 06:34:48;;;;;;;27.88;11.63;;;;;;;;;;5071892;28;20472;-76
2022/03/11 06:37:14;;;;;;;31.33;13.48;;;;;;;;;;5054936;28;20044;-76
2022/03/11 06:39:40;;;;;;;25.60;13.52;;;;;;;;;;5071761;28;20067;-76
2022/03/11 06:42:06;;;;;;;32.47;13.13;;;;;;;;;;5072030;28;20122;-76
2022/03/11 06:44:32;;;;;;;29.50;13.23;;;;;;;;;;5071637;28;20516;-76
2022/03/11 06:46:58;;;;;;;29.05;12.93;;;;;;;;;;5054343;28;20040;-76
2022/03/11 06:49:25;;;;;;;28.58;13.15;;;;;;;;;;5070841;28;20064;-76
2022/03/11 06:51:51;;;;;;;27.20;12.30;;;;;;;;;;5054274;28;20037;-75
2022/03/11 06:54:17;;;;;;;30.90;13.27;;;;;;;;;;5054662;28;20377;-77
2022/03/11 06:56:43;;;;;;;28.65;12.85;;;;;;;;;;5054428;28;20155;-76
2022/03/11 06:59:08;;;;;;;31.00;13.85;;;;;;;;;;5054443;28;20131;-76
2022/03/11 07:01:34;;;;;;;27.55;12.18;;;;;;;;;;5070722;28;20501;-75
2022/03/11 07:04:02;;;;;;;29.17;12.98;;;;;;;;;;5070738;28;20055;-76
2022/03/11 07:06:28;;;;;;;29.85;12.90;;;;;;;;;;5070963;28;20044;-77
2022/03/11 07:08:54;;;;;;;29.08;12.90;;;;;;;;;;5070678;28;20086;-76
2022/03/11 07:11:20;;;;;;;31.98;13.07;;;;;;;;;;5070661;28;20477;-76
2022/03/11 07:13:46;;;;;;;30.13;13.10;;;;;;;;;;5067335;28;20086;-76
2022/03/11 07:16:13;;;;;;;27.90;13.02;;;;;;;;;;5050352;28;20052;-76
2022/03/11 07:18:39;;;;;;;30.23;13.35;;;;;;;;;;5066624;28;20044;-75
2022/03/11 07:21:05;;;;;;;33.85;13.68;;;;;;;;;;5050313;28;20064;-75
2022/03/11 07:23:31;;;;;;;32.03;13.30;;;;;;;;;;5067365;28;20113;-76
2022/03/11 07:25:57;;;;;;;32.30;14.25;;;;;;;;;;5053109;28;20045;-75
2022/03/11 07:28:23;;;;;;;30.33;13.25;;;;;;;;;;5070901;28;20036;-75
2022/03/11 07:30:49;;;;;;;24.98;12.93;;;;;;;;;;5054615;28;20072;-75
2022/03/11 07:33:15;;;;;;;33.20;13.68;;;;;;;;;;5070326;28;20558;-75
2022/03/11 07:35:41;;;;;;;27.58;13.13;;;;;;;;;;5071283;28;20457;-76
2022/03/11 07:38:07;;;;;;;26.52;11.82;;;;;;;;;;5054573;28;20059;-76
2022/03/11 07:40:33;;;;;;;26.42;10.88;;;;;;;;;;5053720;28;20428;-75
2022/03/11 07:42:59;;;;;;;26.35;12.93;;;;;;;;;;5053574;28;20040;-77
2022/03/11 07:45:25;;;;;;;26.63;12.77;;;;;;;;;;5053357;28;20036;-77
2022/03/11 07:47:51;;;;;;;25.90;13.07;;;;;;;;;;5070399;28;20037;-77
2022/03/11 07:50:17;;;;;;;31.77;14.13;;;;;;;;;;5068811;28;20121;-77
2022/03/11 07:52:43;;;;;;;29.67;13.38;;;;;;;;;;5050056;28;20463;-76
2022/03/11 07:55:09;;;;;;;26.52;12.23;;;;;;;;;;5066454;28;20118;-76
2022/03/11 07:57:36;;;;;;;24.40;12.38;;;;;;;;;;5050004;28;20538;-76
2022/03/11 08:00:08;;;;;;;23.77;11.68;;;;;;;;;;5066540;28;20048;-77
2022/03/11 08:02:34;;;;;;;28.15;14.07;;;;;;;;;;5050050;28;20447;-78
2022/03/11 08:05:00;;;;;;;24.60;10.77;;;;;;;;;;5068754;28;20048;-76
2022/03/11 08:07:26;;;;;;;26.75;12.20;;;;;;;;;;5066355;28;20044;-78
2022/03/11 08:09:52;;;;;;;24.42;11.98;;;;;;;;;;5066877;28;20427;-79
2022/03/11 08:12:19;;;;;;;27.42;12.13;;;;;;;;;;5066520;28;20070;-77
2022/03/11 08:14:46;;;;;;;22.70;12.65;;;;;;;;;;5049877;28;20542;-75
2022/03/11 08:17:12;;;;;;;24.20;12.25;;;;;;;;;;5066179;28;20078;-73
2022/03/11 08:19:38;;;;;;;25.08;11.93;;;;;;;;;;5053467;28;20055;-79
2022/03/11 08:22:04;;;;;;;19.15;10.80;;;;;;;;;;5053229;28;20040;-77
2022/03/11 08:24:30;;;;;;;24.95;12.60;;;;;;;;;;5053149;28;20040;-75
2022/03/11 08:26:56;;;;;;;22.45;12.05;;;;;;;;;;5070302;28;20044;-78
2022/03/11 08:29:24;;;;;;;21.00;10.80;;;;;;;;;;5069983;28;20029;-80
2022/03/11 08:31:50;;;;;;;27.55;12.50;;;;;;;;;;5054934;28;20443;-76
2022/03/11 08:34:17;;;;;;;21.00;11.57;;;;;;;;;;5074463;28;20543;-77
2022/03/11 08:36:43;;;;;;;21.10;12.10;;;;;;;;;;5057175;28;20544;-79
2022/03/11 08:39:09;;;;;;;24.30;11.90;;;;;;;;;;5073639;28;20495;-80
2022/03/11 08:41:35;;;;;;;22.15;11.35;;;;;;;;;;5073421;28;20041;-77
2022/03/11 08:44:03;;;;;;;20.95;11.85;;;;;;;;;;5056971;28;20040;-79
2022/03/11 08:46:30;;;;;;;24.65;13.07;;;;;;;;;;5073734;28;20133;-76
2022/03/11 08:48:56;;;;;;;22.08;11.50;;;;;;;;;;5056998;28;20040;-79
2022/03/11 08:51:22;;;;;;;23.05;12.50;;;;;;;;;;5073625;28;20052;-78
2022/03/11 08:53:48;;;;;;;23.77;12.70;;;;;;;;;;5057000;28;20055;-79
2022/03/11 08:56:20;;;;;;;21.50;11.45;;;;;;;;;;5056766;28;20062;-79
2022/03/11 08:58:46;;;;;;;22.17;12.50;;;;;;;;;;5073475;28;20110;-77
2022/03/11 09:01:12;;;;;;;20.98;11.02;;;;;;;;;;5073048;28;20041;-80
2022/03/11 09:03:38;;;;;;;26.80;13.15;;;;;;;;;;5073277;28;20037;-78
2022/03/11 09:06:04;;;;;;;23.33;12.43;;;;;;;;;;5056598;28;20072;-75
2022/03/11 09:08:30;;;;;;;31.42;12.52;;;;;;;;;;5056317;28;20051;-78
2022/03/11 09:10:56;;;;;;;23.23;12.27;;;;;;;;;;5056708;28;20046;-80
2022/03/11 09:13:22;;;;;;;24.95;12.43;;;;;;;;;;5057065;28;20047;-79
2022/03/11 09:15:48;;;;;;;25.00;13.02;;;;;;;;;;5073896;28;20055;-79
2022/03/11 09:18:14;;;;;;;25.85;12.55;;;;;;;;;;5057024;28;20041;-78
2022/03/11 09:20:40;;;;;;;24.88;12.52;;;;;;;;;;5073601;28;20123;-78
2022/03/11 09:23:06;;;;;;;26.60;12.80;;;;;;;;;;5057090;28;20033;-77
2022/03/11 09:25:33;;;;;;;23.02;12.63;;;;;;;;;;5056924;28;20457;-76
2022/03/11 09:27:59;;;;;;;23.88;11.98;;;;;;;;;;5057000;28;20036;-77
2022/03/11 09:30:25;;;;;;;24.20;12.15;;;;;;;;;;5073788;28;20063;-77
2022/03/11 09:32:51;;;;;;;24.20;12.43;;;;;;;;;;5073815;28;20037;-77
2022/03/11 09:35:17;;;;;;;25.52;12.05;;;;;;;;;;5057059;28;20139;-77
2022/03/11 09:37:43;;;;;;;28.95;11.55;;;;;;;;;;5056689;28;20044;-78
2022/03/11 09:40:10;;;;;;;25.55;12.25;;;;;;;;;;5056749;28;20458;-79
2022/03/11 09:42:36;;;;;;;26.38;12.38;;;;;;;;;;5055334;28;20040;-80
2022/03/11 09:45:02;;;;;;;27.45;13.13;;;;;;;;;;5056058;28;20037;-78
2022/03/11 09:47:29;;;;;;;24.02;11.88;;;;;;;;;;5056621;28;20076;-77
2022/03/11 09:49:55;;;;;;;21.25;11.32;;;;;;;;;;5056667;28;20564;-75
2022/03/11 09:52:23;;;;;;;22.63;11.52;;;;;;;;;;5073453;28;20533;-77
2022/03/11 09:54:49;;;;;;;20.92;11.15;;;;;;;;;;5073135;28;20044;-77
2022/03/11 09:57:22;;;;;;;27.48;12.23;;;;;;;;;;5073327;28;20047;-78
2022/03/11 09:59:48;;;;;;;26.65;11.80;;;;;;;;;;5056081;28;20036;-77
2022/03/11 10:02:15;;;;;;;29.30;11.60;;;;;;;;;;5055290;28;20086;-77
2022/03/11 10:04:56;;;;;;;21.23;10.50;;;;;;;;;;5055560;28;20055;-77
2022/03/11 10:07:25;;;;;;;27.88;10.82;;;;;;;;;;5056326;28;20127;-79
2022/03/11 10:09:52;;;;;;;23.55;12.10;;;;;;;;;;5072792;28;20040;-80
2022/03/11 10:12:25;;;;;;;22.83;11.48;;;;;;;;;;5072689;28;20033;-79
2022/03/11 10:14:55;;;;;;;23.05;12.43;;;;;;;;;;5072565;28;20131;-80
2022/03/11 10:17:22;;;;;;;23.40;11.00;;;;;;;;;;5072667;28;20496;-79
2022/03/11 10:20:02;;;;;;;27.10;11.77;;;;;;;;;;5055668;28;20066;-76
2022/03/11 10:22:28;;;;;;;23.73;10.63;;;;;;;;;;5072874;28;20053;-77
2022/03/11 10:24:55;;;;;;;19.88;10.75;;;;;;;;;;5039360;28;20606;-77
2022/03/11 10:27:23;;;;;;;24.42;11.35;;;;;;;;;;5055561;28;20417;-78
2022/03/11 10:29:49;;;;;;;23.20;11.23;;;;;;;;;;5055585;28;20048;-79
2022/03/11 10:32:21;;;;;;;20.40;10.48;;;;;;;;;;5071547;28;20044;-79
2022/03/11 10:34:47;;;;;;;19.27;10.43;;;;;;;;;;5071727;28;20094;-77
2022/03/11 10:37:14;;;;;;;23.60;13.18;;;;;;;;;;5055457;28;20048;-75
2022/03/11 10:39:41;;;;;;;22.48;12.10;;;;;;;;;;5071269;28;20071;-76
2022/03/11 10:42:21;;;;;;;21.58;10.57;;;;;;;;;;5054488;28;20080;-76
2022/03/11 10:44:56;;;;;;;21.58;11.30;;;;;;;;;;5071389;28;20477;-78
2022/03/11 10:47:23;;;;;;;20.80;11.05;;;;;;;;;;5054591;28;20671;-76
2022/03/11 10:49:53;;;;;;;27.00;11.85;;;;;;;;;;5071360;28;20496;-78
2022/03/11 10:52:52;;;;;;;21.85;10.35;;;;;;;;;;5048411;28;20468;-78
2022/03/11 10:55:22;;;;;;;21.00;10.85;;;;;;;;;;5011662;28;20041;-74
2022/03/11 10:57:49;;;;;;;23.15;11.18;;;;;;;;;;5051216;28;20048;-76
2022/03/11 11:00:32;;;;;;;23.58;10.80;;;;;;;;;;5050197;28;20037;-79
2022/03/11 11:03:02;;;;;;;22.90;11.38;;;;;;;;;;5049735;28;20116;-77
2022/03/11 11:05:28;;;;;;;24.42;11.50;;;;;;;;;;5034332;28;20100;-78
2022/03/11 11:07:54;;;;;;;19.27;10.38;;;;;;;;;;5050481;28;20539;-76
2022/03/11 11:10:21;;;;;;;23.25;10.57;;;;;;;;;;5034785;28;20480;-76
2022/03/11 11:12:48;;;;;;;21.70;11.02;;;;;;;;;;5034835;28;20041;-80
2022/03/11 11:15:15;;;;;;;20.45;10.93;;;;;;;;;;5033128;28;20056;-78
2022/03/11 11:17:43;;;;;;;21.13;11.15;;;;;;;;;;5049132;28;20091;-77
2022/03/11 11:20:15;;;;;;;26.48;12.35;;;;;;;;;;5030702;28;20144;-76
2022/03/11 11:22:42;;;;;;;24.25;11.68;;;;;;;;;;5030777;28;20037;-76
2022/03/11 11:25:08;;;;;;;21.55;11.20;;;;;;;;;;5047259;28;20041;-79
2022/03/11 11:27:35;;;;;;;23.17;11.07;;;;;;;;;;5030307;28;20037;-77
2022/03/11 11:30:01;;;;;;;22.67;10.55;;;;;;;;;;5047407;28;20539;-76
2022/03/11 11:32:27;;;;;;;21.67;10.55;;;;;;;;;;5032132;28;20095;-75
2022/03/11 11:34:53;;;;;;;23.00;11.43;;;;;;;;;;5050319;28;20123;-77
2022/03/11 11:37:38;;;;;;;21.25;11.20;;;;;;;;;;5051246;28;20083;-79
2022/03/11 11:40:21;;;;;;;24.35;11.65;;;;;;;;;;5050862;28;20094;-75
2022/03/11 11:43:06;;;;;;;24.67;10.88;;;;;;;;;;5050212;28;20036;-77
2022/03/11 11:45:45;;;;;;;18.02;10.52;;;;;;;;;;5033790;28;20086;-77
2022/03/11 11:48:30;;;;;;;22.27;10.93;;;;;;;;;;5034332;28;20041;-77
2022/03/11 11:50:56;;;;;;;23.02;10.98;;;;;;;;;;5049891;28;20045;-76
2022/03/11 11:53:35;;;;;;;21.52;10.20;;;;;;;;;;5050555;28;20071;-78
2022/03/11 11:56:01;;;;;;;22.48;11.52;;;;;;;;;;5033397;28;20052;-77
2022/03/11 11:58:32;;;;;;;19.15;9.98;;;;;;;;;;5033777;28;20076;-77
2022/03/11 12:00:58;;;;;;;24.27;10.35;;;;;;;;;;5034327;28;20043;-76
2022/03/11 12:03:43;;;;;;;20.20;11.35;;;;;;;;;;5034653;28;20037;-77
2022/03/11 12:06:09;;;;;;;20.40;10.70;;;;;;;;;;5037049;28;20045;-79
2022/03/11 12:08:39;;;;;;;19.10;10.65;;;;;;;;;;5038449;28;20175;-79
2022/03/11 12:11:06;;;;;;;21.23;11.30;;;;;;;;;;5038333;28;20128;-77
2022/03/11 12:13:33;;;;;;;20.48;9.73;;;;;;;;;;5054588;28;20064;-77
2022/03/11 12:16:00;;;;;;;22.23;11.40;;;;;;;;;;5054391;28;20053;-76
2022/03/11 12:18:44;;;;;;;20.90;9.95;;;;;;;;;;5037904;28;20048;-76
2022/03/11 12:21:23;;;;;;;18.25;9.63;;;;;;;;;;5053918;28;20049;-80
2022/03/11 12:23:49;;;;;;;16.92;9.75;;;;;;;;;;5037391;28;20040;-76
2022/03/11 12:26:15;;;;;;;19.15;9.95;;;;;;;;;;5037295;28;20489;-79
2022/03/11 12:28:42;;;;;;;17.60;9.43;;;;;;;;;;5037465;28;20107;-79
2022/03/11 12:31:13;;;;;;;19.45;10.10;;;;;;;;;;5037479;28;20063;-80
2022/03/11 12:33:46;;;;;;;20.70;9.98;;;;;;;;;;5037273;28;20044;-79
2022/03/11 12:36:13;;;;;;;17.75;10.05;;;;;;;;;;5037017;28;20056;-80
2022/03/11 12:38:40;;;;;;;20.67;10.45;;;;;;;;;;5036994;28;20076;-80
2022/03/11 12:41:13;;;;;;;20.88;9.65;;;;;;;;;;5036578;28;20053;-79
2022/03/11 12:43:40;;;;;;;19.50;9.90;;;;;;;;;;5037196;28;20083;-76
2022/03/11 12:46:06;;;;;;;20.98;10.40;;;;;;;;;;5036973;28;20051;-79
2022/03/11 12:48:37;;;;;;;18.08;9.73;;;;;;;;;;5036701;28;20052;-77
2022/03/11 12:51:04;;;;;;;19.53;9.47;;;;;;;;;;5053731;28;20048;-78
2022/03/11 12:53:31;;;;;;;16.60;8.80;;;;;;;;;;5053415;28;20616;-79
2022/03/11 12:55:57;;;;;;;18.02;9.55;;;;;;;;;;5050824;28;20048;-79
2022/03/11 12:58:30;;;;;;;18.20;10.15;;;;;;;;;;5033670;28;20052;-77
2022/03/11 13:01:00;;;;;;;21.52;11.05;;;;;;;;;;5049623;28;20085;-76
2022/03/11 13:03:27;;;;;;;18.65;8.90;;;;;;;;;;5033529;28;20041;-78
2022/03/11 13:05:53;;;;;;;14.60;8.88;;;;;;;;;;5049811;28;20121;-79
2022/03/11 13:08:19;;;;;;;18.75;9.77;;;;;;;;;;5033383;28;20493;-77
2022/03/11 13:10:46;;;;;;;32.53;11.10;;;;;;;;;;5049876;28;20044;-78
2022/03/11 13:13:12;;;;;;;17.10;9.25;;;;;;;;;;5049145;28;20137;-77
2022/03/11 13:15:39;;;;;;;19.40;10.48;;;;;;;;;;5032931;28;20136;-77
2022/03/11 13:18:06;;;;;;;14.75;8.20;;;;;;;;;;5032302;28;20045;-79
2022/03/11 13:20:45;;;;;;;18.38;9.68;;;;;;;;;;5049503;28;20059;-77
2022/03/11 13:23:14;;;;;;;17.48;9.18;;;;;;;;;;5049689;28;20048;-79
2022/03/11 13:26:04;;;;;;;21.17;10.30;;;;;;;;;;5048999;28;20047;-77
2022/03/11 13:28:31;;;;;;;17.05;9.73;;;;;;;;;;5027764;28;20152;-76
2022/03/11 13:31:15;;;;;;;16.80;9.00;;;;;;;;;;5032722;28;20452;-78
2022/03/11 13:33:42;;;;;;;17.08;8.90;;;;;;;;;;5032906;28;20064;-78
2022/03/11 13:36:10;;;;;;;16.17;8.63;;;;;;;;;;5048817;28;20060;-77
2022/03/11 13:38:41;;;;;;;17.10;8.90;;;;;;;;;;5032535;28;20420;-79
2022/03/11 13:41:09;;;;;;;16.73;8.50;;;;;;;;;;5048950;28;20052;-78
2022/03/11 13:43:35;;;;;;;14.77;9.15;;;;;;;;;;5032629;28;20041;-76
2022/03/11 13:46:01;;;;;;;17.90;8.88;;;;;;;;;;5032655;28;20037;-79
2022/03/11 13:48:31;;;;;;;15.55;7.60;;;;;;;;;;5032021;28;20044;-76
2022/03/11 13:51:06;;;;;;;14.57;8.80;;;;;;;;;;5032675;28;20040;-78
2022/03/11 13:53:32;;;;;;;20.25;9.27;;;;;;;;;;5048730;28;20131;-77
2022/03/11 13:56:05;;;;;;;16.30;8.75;;;;;;;;;;5048699;28;20489;-75
2022/03/11 13:58:32;;;;;;;14.80;7.90;;;;;;;;;;5033573;28;20095;-76
2022/03/11 14:01:07;;;;;;;19.27;10.20;;;;;;;;;;5052118;28;20400;-76
2022/03/11 14:03:41;;;;;;;20.20;8.25;;;;;;;;;;5035428;28;20429;-77
2022/03/11 14:06:07;;;;;;;17.55;7.88;;;;;;;;;;5035390;28;20409;-81
2022/03/11 14:08:33;;;;;;;17.60;8.32;;;;;;;;;;5035298;28;20032;-78
2022/03/11 14:11:03;;;;;;;18.17;7.72;;;;;;;;;;5035659;28;20136;-78
2022/03/11 14:13:32;;;;;;;13.90;8.17;;;;;;;;;;5035424;28;20094;-78
2022/03/11 14:16:05;;;;;;;16.27;8.48;;;;;;;;;;5051752;28;20152;-77
2022/03/11 14:18:31;;;;;;;15.48;7.30;;;;;;;;;;5052143;28;20174;-77
2022/03/11 14:20:57;;;;;;;16.27;8.68;;;;;;;;;;5035164;28;20127;-79
2022/03/11 14:23:23;;;;;;;15.45;7.57;;;;;;;;;;5052047;28;20041;-80